createdAt,value
2023-04-18T00:01:19.019Z,7.76
2023-04-18T00:03:47.170Z,7.73
2023-04-18T00:06:15.416Z,7.65
2023-04-18T00:08:43.545Z,7.61
2023-04-18T00:11:12.996Z,7.56
2023-04-18T00:13:41.545Z,7.50
2023-04-18T00:16:09.996Z,7.45
2023-04-18T00:18:39.910Z,7.40
2023-04-18T00:21:08.697Z,7.34
2023-04-18T00:23:37.263Z,7.30
2023-04-18T00:26:05.445Z,7.25
2023-04-18T00:28:34.890Z,7.20
2023-04-18T00:31:03.050Z,7.16
2023-04-18T00:33:31.164Z,7.13
2023-04-18T00:35:59.236Z,7.08
2023-04-18T00:38:27.303Z,7.05
2023-04-18T00:40:55.406Z,7.01
2023-04-18T00:43:24.342Z,7.00
2023-04-18T00:45:54.083Z,6.98
2023-04-18T00:48:22.204Z,6.96
2023-04-18T00:50:50.328Z,6.94
2023-04-18T00:53:18.514Z,6.92
2023-04-18T00:55:46.779Z,6.90
2023-04-18T00:58:15.157Z,6.90
2023-04-18T01:00:43.671Z,6.89
2023-04-18T01:03:14.500Z,6.87
2023-04-18T01:05:42.829Z,6.85
2023-04-18T01:08:11.092Z,6.82
2023-04-18T01:10:39.282Z,6.81
2023-04-18T01:13:14.592Z,6.78
2023-04-18T01:15:43.686Z,6.74
2023-04-18T01:18:17.046Z,6.71
2023-04-18T01:20:47.266Z,6.70
2023-04-18T01:23:16.021Z,6.69
2023-04-18T01:25:46.111Z,6.67
2023-04-18T01:28:15.013Z,6.66
2023-04-18T01:30:43.115Z,6.62
2023-04-18T01:33:11.412Z,6.61
2023-04-18T01:35:39.462Z,6.57
2023-04-18T01:38:07.533Z,6.55
2023-04-18T01:40:35.686Z,6.54
2023-04-18T01:43:05.136Z,6.52
2023-04-18T01:45:33.224Z,6.48
2023-04-18T01:48:01.353Z,6.44
2023-04-18T01:50:29.583Z,6.43
2023-04-18T01:52:57.632Z,6.41
2023-04-18T01:55:25.676Z,6.39
2023-04-18T01:57:53.777Z,6.38
2023-04-18T02:00:23.754Z,6.36
2023-04-18T02:02:51.963Z,6.34
2023-04-18T02:05:20.249Z,6.32
2023-04-18T02:07:50.179Z,6.31
2023-04-18T02:10:19.372Z,6.30
2023-04-18T02:12:47.577Z,6.28
2023-04-18T02:15:15.687Z,6.26
2023-04-18T02:17:45.627Z,6.24
2023-04-18T02:20:14.760Z,6.23
2023-04-18T02:22:42.901Z,6.21
2023-04-18T02:25:11.790Z,6.19
2023-04-18T02:27:39.817Z,6.18
2023-04-18T02:30:09.054Z,6.15
2023-04-18T02:32:37.196Z,6.14
2023-04-18T02:35:07.404Z,6.12
2023-04-18T02:37:35.463Z,6.11
2023-04-18T02:40:05.633Z,6.09
2023-04-18T02:42:33.855Z,6.09
2023-04-18T02:45:01.999Z,6.10
2023-04-18T02:47:31.731Z,6.10
2023-04-18T02:50:03.485Z,6.09
2023-04-18T02:52:32.973Z,6.09
2023-04-18T02:55:01.210Z,6.06
2023-04-18T02:57:29.262Z,6.02
2023-04-18T02:59:57.379Z,5.97
2023-04-18T03:02:25.626Z,5.93
2023-04-18T03:04:54.132Z,5.90
2023-04-18T03:07:22.235Z,5.88
2023-04-18T03:09:51.705Z,5.85
2023-04-18T03:12:19.785Z,5.83
2023-04-18T03:14:47.850Z,5.82
2023-04-18T03:17:16.050Z,5.81
2023-04-18T03:19:44.985Z,5.80
2023-04-18T03:22:14.043Z,5.77
2023-04-18T03:24:42.105Z,5.72
2023-04-18T03:27:11.591Z,5.70
2023-04-18T03:29:39.713Z,5.67
2023-04-18T03:32:07.818Z,5.64
2023-04-18T03:34:36.110Z,5.60
2023-04-18T03:37:04.179Z,5.58
2023-04-18T03:39:32.328Z,5.57
2023-04-18T03:42:01.478Z,5.56
2023-04-18T03:44:31.266Z,5.54
2023-04-18T03:46:59.405Z,5.51
2023-04-18T03:49:27.486Z,5.51
2023-04-18T03:51:55.629Z,5.48
2023-04-18T03:54:23.704Z,5.46
2023-04-18T03:56:51.824Z,5.45
2023-04-18T03:59:19.982Z,5.42
2023-04-18T04:01:49.531Z,5.40
2023-04-18T04:04:17.788Z,5.40
2023-04-18T04:06:46.328Z,5.42
2023-04-18T04:09:14.402Z,5.42
2023-04-18T04:11:42.502Z,5.43
2023-04-18T04:14:10.662Z,5.44
2023-04-18T04:16:38.907Z,5.45
2023-04-18T04:19:08.432Z,5.46
2023-04-18T04:21:36.599Z,5.47
2023-04-18T04:24:04.763Z,5.49
2023-04-18T04:26:32.862Z,5.49
2023-04-18T04:29:00.906Z,5.53
2023-04-18T04:31:29.473Z,5.56
2023-04-18T04:33:57.581Z,5.59
2023-04-18T04:36:27.919Z,5.58
2023-04-18T04:38:55.982Z,5.61
2023-04-18T04:41:24.626Z,5.64
2023-04-18T04:43:53.874Z,5.68
2023-04-18T04:46:23.296Z,5.72
2023-04-18T04:48:53.167Z,5.75
2023-04-18T04:51:21.263Z,5.78
2023-04-18T04:53:50.719Z,5.83
2023-04-18T04:56:18.860Z,5.88
2023-04-18T04:58:47.217Z,5.95
2023-04-18T05:01:16.803Z,6.01
2023-04-18T05:03:45.285Z,6.07
2023-04-18T05:06:14.075Z,6.13
2023-04-18T05:08:42.159Z,6.20
2023-04-18T05:11:11.603Z,6.27
2023-04-18T05:13:39.683Z,6.35
2023-04-18T05:16:07.916Z,6.41
2023-04-18T05:18:38.973Z,6.51
2023-04-18T05:21:07.169Z,6.58
2023-04-18T05:23:36.971Z,6.65
2023-04-18T05:26:05.216Z,6.73
2023-04-18T05:28:34.660Z,6.82
2023-04-18T05:31:02.844Z,6.89
2023-04-18T05:33:31.627Z,6.98
2023-04-18T05:36:00.060Z,7.07
2023-04-18T05:38:28.218Z,7.16
2023-04-18T05:40:57.140Z,7.26
2023-04-18T05:43:25.216Z,7.41
2023-04-18T05:45:56.553Z,7.62
2023-04-18T05:48:26.132Z,7.89
2023-04-18T05:50:54.263Z,8.11
2023-04-18T05:53:22.321Z,8.14
2023-04-18T05:55:50.556Z,8.06
2023-04-18T05:58:18.637Z,8.02
2023-04-18T06:00:48.257Z,8.00
2023-04-18T06:03:17.947Z,8.00
2023-04-18T06:08:14.318Z,8.04
2023-04-18T06:10:42.398Z,8.08
2023-04-18T06:13:10.504Z,8.15
2023-04-18T06:15:38.656Z,8.20
2023-04-18T06:18:06.842Z,8.30
2023-04-18T06:20:36.413Z,8.37
2023-04-18T06:23:04.475Z,8.43
2023-04-18T06:25:32.565Z,8.49
2023-04-18T06:28:00.669Z,8.57
2023-04-18T06:30:28.801Z,8.62
2023-04-18T06:32:56.885Z,8.62
2023-04-18T06:35:26.621Z,8.64
2023-04-18T06:37:57.146Z,8.61
2023-04-18T06:40:25.303Z,8.65
2023-04-18T06:42:53.583Z,8.73
2023-04-18T06:45:21.810Z,8.75
2023-04-18T06:47:51.374Z,8.77
2023-04-18T06:50:19.622Z,8.80
2023-04-18T06:52:47.705Z,8.84
2023-04-18T06:55:17.247Z,8.90
2023-04-18T06:57:45.550Z,8.88
2023-04-18T07:00:14.539Z,8.85
2023-04-18T07:02:42.701Z,8.82
2023-04-18T07:05:11.514Z,8.80
2023-04-18T07:07:40.146Z,8.79
2023-04-18T07:10:09.948Z,8.81
2023-04-18T07:12:39.461Z,8.84
2023-04-18T07:15:08.581Z,8.89
2023-04-18T07:17:37.079Z,8.89
2023-04-18T07:20:06.000Z,8.89
2023-04-18T07:22:34.267Z,8.90
2023-04-18T07:25:02.416Z,8.94
2023-04-18T07:27:30.816Z,8.95
2023-04-18T07:30:00.264Z,8.99
2023-04-18T07:32:28.366Z,9.02
2023-04-18T07:34:57.573Z,9.08
2023-04-18T07:37:26.192Z,9.12
2023-04-18T07:39:54.371Z,9.14
2023-04-18T07:42:22.458Z,9.09
2023-04-18T07:44:50.604Z,9.09
2023-04-18T07:47:22.437Z,9.17
2023-04-18T07:49:50.815Z,9.22
2023-04-18T07:52:19.115Z,9.27
2023-04-18T07:54:47.661Z,9.35
2023-04-18T07:57:15.816Z,9.41
2023-04-18T07:59:43.874Z,9.48
2023-04-18T08:02:11.954Z,9.49
2023-04-18T08:04:41.544Z,9.48
2023-04-18T08:07:09.826Z,9.50
2023-04-18T08:09:37.915Z,9.50
2023-04-18T08:12:06.528Z,9.50
2023-04-18T08:14:34.610Z,9.48
2023-04-18T08:17:02.701Z,9.49
2023-04-18T08:19:30.834Z,9.54
2023-04-18T08:22:10.269Z,9.63
2023-04-18T08:24:38.969Z,9.63
2023-04-18T08:27:07.425Z,9.64
2023-04-18T08:29:35.517Z,9.68
2023-04-18T08:32:03.801Z,9.64
2023-04-18T08:34:34.241Z,9.63
2023-04-18T08:37:02.629Z,9.65
2023-04-18T08:39:32.221Z,9.66
2023-04-18T08:42:01.667Z,9.66
2023-04-18T08:44:30.632Z,9.74
2023-04-18T08:47:00.230Z,9.79
2023-04-18T08:49:28.795Z,9.80
2023-04-18T08:51:57.544Z,9.82
2023-04-18T08:54:27.403Z,9.87
2023-04-18T08:57:16.652Z,9.96
2023-04-18T08:59:48.270Z,10.02
2023-04-18T09:02:19.227Z,9.98
2023-04-18T09:04:52.420Z,9.94
2023-04-18T09:07:23.693Z,9.96
2023-04-18T09:09:53.605Z,10.01
2023-04-18T09:12:24.147Z,10.11
2023-04-18T09:14:56.481Z,10.19
2023-04-18T09:17:35.573Z,10.23
2023-04-18T09:20:06.072Z,10.33
2023-04-18T09:22:48.622Z,10.40
2023-04-18T09:25:27.465Z,10.39
2023-04-18T09:27:57.472Z,10.32
2023-04-18T09:30:36.950Z,10.24
2023-04-18T09:33:07.651Z,10.19
2023-04-18T09:35:36.228Z,10.20
2023-04-18T09:38:04.680Z,10.26
2023-04-18T09:40:33.431Z,10.30
2023-04-18T09:43:18.043Z,10.34
2023-04-18T09:45:48.811Z,10.40
2023-04-18T09:48:16.913Z,10.52
2023-04-18T09:50:46.099Z,10.58
2023-04-18T09:53:15.238Z,10.67
2023-04-18T09:55:43.586Z,10.78
2023-04-18T09:58:13.522Z,10.93
2023-04-18T10:00:41.793Z,11.09
2023-04-18T10:03:11.422Z,11.15
2023-04-18T10:05:41.327Z,11.18
2023-04-18T10:08:10.441Z,11.33
2023-04-18T10:10:39.191Z,11.54
2023-04-18T10:13:11.041Z,11.66
2023-04-18T10:15:42.392Z,11.72
2023-04-18T10:18:15.838Z,11.84
2023-04-18T10:20:44.494Z,11.96
2023-04-18T10:23:38.526Z,12.17
2023-04-18T10:26:07.554Z,12.41
2023-04-18T10:28:53.115Z,12.68
2023-04-18T10:31:23.800Z,12.94
2023-04-18T10:34:04.130Z,13.05
2023-04-18T10:36:34.052Z,13.18
2023-04-18T10:39:04.296Z,13.22
2023-04-18T10:41:33.293Z,13.25
2023-04-18T10:44:22.307Z,13.41
2023-04-18T10:47:26.822Z,13.36
2023-04-18T10:49:58.520Z,13.35
2023-04-18T10:52:27.701Z,13.49
2023-04-18T10:55:05.749Z,13.65
2023-04-18T10:57:44.101Z,13.72
2023-04-18T11:00:14.772Z,13.83
2023-04-18T11:02:50.453Z,14.01
2023-04-18T11:05:24.826Z,14.36
2023-04-18T11:07:53.060Z,14.59
2023-04-18T11:10:22.703Z,14.72
2023-04-18T11:12:51.235Z,14.96
2023-04-18T11:15:22.375Z,15.19
2023-04-18T11:17:58.579Z,15.36
2023-04-18T11:20:28.834Z,15.56
2023-04-18T11:22:58.132Z,15.63
2023-04-18T11:25:27.962Z,15.44
2023-04-18T11:27:56.654Z,15.56
2023-04-18T11:30:24.828Z,15.78
2023-04-18T11:32:55.959Z,15.89
2023-04-18T11:35:24.247Z,15.88
2023-04-18T11:37:55.740Z,15.76
2023-04-18T11:40:24.017Z,15.72
2023-04-18T11:42:52.137Z,15.76
2023-04-18T11:45:20.260Z,15.88
2023-04-18T11:47:48.527Z,15.94
2023-04-18T11:50:16.714Z,16.06
2023-04-18T11:52:50.624Z,16.07
2023-04-18T11:55:22.109Z,16.14
2023-04-18T11:57:54.402Z,16.16
2023-04-18T12:00:34.435Z,16.36
2023-04-18T12:03:04.570Z,16.51
2023-04-18T12:05:34.801Z,16.55
2023-04-18T12:08:10.210Z,16.39
2023-04-18T12:10:46.518Z,16.47
2023-04-18T12:13:14.738Z,16.69
2023-04-18T12:15:45.677Z,16.72
2023-04-18T12:18:15.292Z,16.47
2023-04-18T12:20:50.117Z,16.05
2023-04-18T12:23:31.962Z,15.67
2023-04-18T12:26:02.609Z,15.51
2023-04-18T12:28:31.342Z,15.32
2023-04-18T12:30:59.941Z,15.14
2023-04-18T12:33:28.128Z,15.10
2023-04-18T12:35:56.223Z,15.05
2023-04-18T12:38:25.007Z,14.92
2023-04-18T12:40:53.472Z,14.77
2023-04-18T12:43:22.913Z,14.58
2023-04-18T12:45:51.147Z,14.29
2023-04-18T12:48:19.228Z,14.12
2023-04-18T12:50:47.344Z,14.18
2023-04-18T12:53:15.422Z,14.26
2023-04-18T12:55:43.581Z,14.36
2023-04-18T12:58:11.680Z,14.52
2023-04-18T13:00:41.392Z,14.54
2023-04-18T13:03:11.753Z,14.49
2023-04-18T13:05:41.331Z,14.52
2023-04-18T13:08:17.009Z,14.60
2023-04-18T13:10:47.479Z,14.74
2023-04-18T13:13:15.970Z,14.73
2023-04-18T13:15:45.493Z,14.66
2023-04-18T13:18:13.597Z,14.68
2023-04-18T13:20:41.766Z,14.84
2023-04-18T13:23:09.864Z,15.12
2023-04-18T13:25:37.933Z,15.57
2023-04-18T13:28:06.406Z,15.80
2023-04-18T13:30:35.764Z,15.88
2023-04-18T13:33:05.516Z,15.92
2023-04-18T13:35:33.647Z,16.11
2023-04-18T13:38:01.734Z,16.32
2023-04-18T13:40:29.854Z,16.45
2023-04-18T13:42:57.979Z,16.34
2023-04-18T13:45:26.104Z,16.09
2023-04-18T13:47:54.348Z,15.99
2023-04-18T13:50:24.486Z,15.96
2023-04-18T13:52:54.474Z,15.88
2023-04-18T13:55:22.712Z,15.77
2023-04-18T13:57:51.066Z,15.71
2023-04-18T14:00:20.364Z,15.63
2023-04-18T14:02:48.668Z,15.44
2023-04-18T14:05:16.982Z,15.26
2023-04-18T14:07:46.769Z,15.21
2023-04-18T14:10:15.015Z,15.22
2023-04-18T14:12:43.112Z,15.23
2023-04-18T14:15:12.119Z,15.35
2023-04-18T14:17:40.877Z,15.48
2023-04-18T14:20:10.869Z,15.49
2023-04-18T14:22:39.006Z,15.51
2023-04-18T14:25:09.784Z,15.42
2023-04-18T14:27:38.052Z,15.29
2023-04-18T14:30:08.680Z,15.15
2023-04-18T14:32:36.970Z,15.05
2023-04-18T14:35:07.113Z,14.89
2023-04-18T14:37:35.404Z,14.78
2023-04-18T14:40:05.464Z,14.78
2023-04-18T14:42:34.942Z,14.71
2023-04-18T14:45:05.128Z,14.67
2023-04-18T14:47:34.675Z,14.60
2023-04-18T14:50:02.923Z,14.63
2023-04-18T14:52:31.033Z,14.79
2023-04-18T14:54:59.116Z,14.90
2023-04-18T14:57:29.403Z,14.90
2023-04-18T14:59:58.872Z,14.69
2023-04-18T15:02:27.334Z,14.46
2023-04-18T15:04:55.814Z,14.29
2023-04-18T15:07:23.940Z,14.09
2023-04-18T15:09:52.132Z,13.95
2023-04-18T15:12:20.193Z,13.95
2023-04-18T15:14:48.292Z,13.96
2023-04-18T15:17:17.780Z,13.92
2023-04-18T15:19:45.859Z,13.92
2023-04-18T15:22:14.240Z,13.89
2023-04-18T15:24:42.400Z,13.86
2023-04-18T15:27:10.851Z,13.86
2023-04-18T15:29:38.943Z,13.91
2023-04-18T15:32:07.303Z,13.88
2023-04-18T15:34:36.966Z,13.77
2023-04-18T15:37:05.050Z,13.67
2023-04-18T15:39:33.152Z,13.59
2023-04-18T15:42:02.241Z,13.53
2023-04-18T15:44:30.577Z,13.57
2023-04-18T15:47:01.083Z,13.73
2023-04-18T15:49:29.136Z,13.96
2023-04-18T15:51:58.612Z,13.96
2023-04-18T15:54:26.730Z,13.75
2023-04-18T15:56:54.837Z,13.53
2023-04-18T15:59:22.926Z,13.46
2023-04-18T16:01:51.555Z,13.42
2023-04-18T16:04:19.755Z,13.43
2023-04-18T16:06:47.841Z,13.38
2023-04-18T16:09:17.367Z,13.39
2023-04-18T16:11:45.491Z,13.44
2023-04-18T16:14:13.865Z,13.45
2023-04-18T16:16:42.197Z,13.41
2023-04-18T16:19:10.275Z,13.40
2023-04-18T16:21:38.403Z,13.50
2023-04-18T16:24:07.147Z,13.58
2023-04-18T16:26:36.609Z,13.49
2023-04-18T16:29:04.720Z,13.31
2023-04-18T16:31:32.824Z,13.05
2023-04-18T16:34:01.103Z,12.83
2023-04-18T16:36:29.208Z,12.70
2023-04-18T16:38:57.283Z,12.56
2023-04-18T16:41:25.598Z,12.52
2023-04-18T16:43:55.277Z,12.52
2023-04-18T16:46:23.531Z,12.51
2023-04-18T16:48:52.508Z,12.55
2023-04-18T16:51:20.993Z,12.65
2023-04-18T16:53:49.225Z,12.74
2023-04-18T16:56:17.338Z,12.82
2023-04-18T16:58:45.423Z,12.91
2023-04-18T17:01:14.932Z,13.02
2023-04-18T17:03:43.106Z,13.05
2023-04-18T17:06:11.279Z,13.00
2023-04-18T17:08:39.330Z,12.89
2023-04-18T17:11:07.969Z,12.77
2023-04-18T17:13:36.390Z,12.70
2023-04-18T17:16:04.778Z,12.70
2023-04-18T17:18:34.567Z,12.67
2023-04-18T17:21:03.283Z,12.64
2023-04-18T17:23:32.959Z,12.48
2023-04-18T17:26:01.315Z,12.30
2023-04-18T17:28:29.379Z,12.18
2023-04-18T17:30:58.565Z,12.03
2023-04-18T17:33:26.671Z,11.86
2023-04-18T17:35:56.229Z,11.72
2023-04-18T17:38:24.387Z,11.60
2023-04-18T17:40:59.992Z,11.48
2023-04-18T17:43:28.377Z,11.34
2023-04-18T17:45:57.122Z,11.22
2023-04-18T17:48:25.891Z,11.08
2023-04-18T17:50:53.992Z,10.96
2023-04-18T17:53:23.458Z,10.86
2023-04-18T17:55:52.250Z,10.76
2023-04-18T17:58:21.013Z,10.68
2023-04-18T18:00:49.196Z,10.60
2023-04-18T18:03:17.962Z,10.51
2023-04-18T18:05:47.028Z,10.42
2023-04-18T18:08:15.137Z,10.33
2023-04-18T18:10:46.907Z,10.28
2023-04-18T18:13:15.252Z,10.22
2023-04-18T18:15:43.369Z,10.16
2023-04-18T18:18:11.552Z,10.08
2023-04-18T18:20:43.335Z,10.00
2023-04-18T18:23:11.441Z,9.94
2023-04-18T18:25:40.184Z,9.88
2023-04-18T18:28:09.686Z,9.81
2023-04-18T18:30:38.224Z,9.73
2023-04-18T18:33:06.430Z,9.66
2023-04-18T18:35:34.933Z,9.59
2023-04-18T18:38:03.061Z,9.50
2023-04-18T18:40:31.223Z,9.49
2023-04-18T18:43:02.343Z,9.46
2023-04-18T18:45:31.889Z,9.42
2023-04-18T18:48:00.005Z,9.36
2023-04-18T18:50:28.141Z,9.28
2023-04-18T18:52:56.272Z,9.23
2023-04-18T18:55:24.485Z,9.16
2023-04-18T18:57:52.725Z,9.12
2023-04-18T19:00:21.041Z,9.03
2023-04-18T19:02:50.734Z,8.95
2023-04-18T19:05:18.921Z,8.87
2023-04-18T19:07:47.125Z,8.78
2023-04-18T19:10:15.382Z,8.69
2023-04-18T19:12:43.560Z,8.66
2023-04-18T19:15:12.880Z,8.60
2023-04-18T19:17:41.595Z,8.55
2023-04-18T19:20:12.015Z,8.50
2023-04-18T19:22:40.115Z,8.43
2023-04-18T19:25:09.719Z,8.37
2023-04-18T19:27:37.849Z,8.34
2023-04-18T19:30:06.969Z,8.30
2023-04-18T19:32:35.105Z,8.26
2023-04-18T19:35:04.594Z,8.23
2023-04-18T19:37:35.965Z,8.21
2023-04-18T19:40:04.153Z,8.16
2023-04-18T19:42:32.232Z,8.12
2023-04-18T19:45:00.433Z,8.07
2023-04-18T19:47:32.163Z,8.03
2023-04-18T19:50:00.789Z,7.98
2023-04-18T19:52:28.869Z,7.93
2023-04-18T19:54:58.348Z,7.87
2023-04-18T19:57:27.716Z,7.83
2023-04-18T19:59:55.875Z,7.80
2023-04-18T20:02:24.135Z,7.74
2023-04-18T20:04:52.689Z,7.72
2023-04-18T20:07:20.838Z,7.69
2023-04-18T20:09:48.943Z,7.68
2023-04-18T20:12:18.401Z,7.66
2023-04-18T20:14:46.551Z,7.65
2023-04-18T20:17:14.722Z,7.63
2023-04-18T20:19:42.814Z,7.63
2023-04-18T20:22:10.885Z,7.64
2023-04-18T20:24:40.152Z,7.62
2023-04-18T20:27:08.265Z,7.64
2023-04-18T20:29:37.776Z,7.67
2023-04-18T20:32:06.461Z,7.70
2023-04-18T20:34:34.557Z,7.72
2023-04-18T20:37:02.604Z,7.73
2023-04-18T20:39:31.503Z,7.76
2023-04-18T20:41:59.860Z,7.75
2023-04-18T20:44:28.147Z,7.75
2023-04-18T20:46:58.023Z,7.74
2023-04-18T20:49:26.185Z,7.73
2023-04-18T20:51:54.277Z,7.71
2023-04-18T20:54:22.397Z,7.67
2023-04-18T20:56:50.458Z,7.65
2023-04-18T20:59:18.550Z,7.63
2023-04-18T21:01:46.925Z,7.62
2023-04-18T21:04:16.763Z,7.61
2023-04-18T21:06:45.174Z,7.61
2023-04-18T21:09:13.431Z,7.64
2023-04-18T21:11:41.725Z,7.64
2023-04-18T21:14:09.930Z,7.64
2023-04-18T21:16:39.539Z,7.64
2023-04-18T21:19:08.521Z,7.64
2023-04-18T21:21:37.981Z,7.62
2023-04-18T21:24:06.711Z,7.61
2023-04-18T21:26:34.808Z,7.60
2023-04-18T21:29:04.697Z,7.59
2023-04-18T21:31:34.255Z,7.58
2023-04-18T21:34:03.428Z,7.57
2023-04-18T21:36:32.123Z,7.58
2023-04-18T21:39:01.953Z,7.57
2023-04-18T21:41:30.050Z,7.56
2023-04-18T21:43:58.147Z,7.54
2023-04-18T21:46:26.503Z,7.54
2023-04-18T21:48:54.775Z,7.54
2023-04-18T21:51:22.916Z,7.51
2023-04-18T21:53:50.998Z,7.50
2023-04-18T21:56:20.466Z,7.48
2023-04-18T21:58:48.673Z,7.46
2023-04-18T22:01:16.760Z,7.43
2023-04-18T22:03:46.264Z,7.42
2023-04-18T22:06:14.555Z,7.41
2023-04-18T22:08:43.640Z,7.41
2023-04-18T22:11:13.579Z,7.37
2023-04-18T22:13:44.633Z,7.34
2023-04-18T22:16:12.898Z,7.32
2023-04-18T22:18:41.038Z,7.28
2023-04-18T22:21:09.543Z,7.26
2023-04-18T22:23:37.606Z,7.23
2023-04-18T22:26:05.830Z,7.20
2023-04-18T22:28:33.994Z,7.16
2023-04-18T22:31:03.450Z,7.12
2023-04-18T22:33:31.585Z,7.06
2023-04-18T22:35:59.699Z,7.04
2023-04-18T22:38:27.786Z,7.02
2023-04-18T22:40:55.822Z,6.97
2023-04-18T22:43:24.992Z,6.95
2023-04-18T22:45:53.187Z,6.91
2023-04-18T22:48:23.760Z,6.88
2023-04-18T22:50:51.951Z,6.86
2023-04-18T22:53:20.034Z,6.83
2023-04-18T22:55:48.101Z,6.79
2023-04-18T22:58:16.241Z,6.74
2023-04-18T23:00:44.375Z,6.71
2023-04-18T23:03:12.601Z,6.65
2023-04-18T23:05:42.187Z,6.58
2023-04-18T23:08:11.832Z,6.51
2023-04-18T23:10:40.075Z,6.44
2023-04-18T23:13:08.220Z,6.38
2023-04-18T23:15:36.333Z,6.31
2023-04-18T23:18:04.478Z,6.25
2023-04-18T23:20:32.653Z,6.18
2023-04-18T23:23:02.064Z,6.10
2023-04-18T23:25:32.390Z,6.03
2023-04-18T23:28:00.693Z,5.97
2023-04-18T23:30:28.858Z,5.90
2023-04-18T23:32:56.934Z,5.86
2023-04-18T23:35:25.190Z,5.82
2023-04-18T23:37:53.293Z,5.75
2023-04-18T23:40:23.413Z,5.70
2023-04-18T23:42:51.529Z,5.66
2023-04-18T23:45:19.652Z,5.63
2023-04-18T23:47:47.854Z,5.65
2023-04-18T23:50:15.983Z,5.67
2023-04-18T23:52:44.240Z,5.69
2023-04-18T23:55:12.573Z,5.72
2023-04-18T23:57:42.040Z,5.76
